createdAt,value
2022-11-06T00:02:20.479Z,70.43
2022-11-06T00:04:47.340Z,69.55
2022-11-06T00:07:13.726Z,70.39
2022-11-06T00:09:40.183Z,70.07
2022-11-06T00:12:06.865Z,69.56
2022-11-06T00:14:33.275Z,69.53
2022-11-06T00:16:59.699Z,69.55
2022-11-06T00:19:26.179Z,69.50
2022-11-06T00:21:52.665Z,69.74
2022-11-06T00:24:18.982Z,70.09
2022-11-06T00:26:49.813Z,69.97
2022-11-06T00:29:19.544Z,69.59
2022-11-06T00:31:45.939Z,69.05
2022-11-06T00:34:12.370Z,69.27
2022-11-06T00:36:38.781Z,69.38
2022-11-06T00:39:05.182Z,69.66
2022-11-06T00:41:31.616Z,69.93
2022-11-06T00:44:00.546Z,70.39
2022-11-06T00:46:27.560Z,69.74
2022-11-06T00:48:54.710Z,69.83
2022-11-06T00:51:24.954Z,70.16
2022-11-06T00:53:56.861Z,69.83
2022-11-06T00:56:24.142Z,69.96
2022-11-06T00:58:50.543Z,70.12
2022-11-06T01:01:18.791Z,70.84
2022-11-06T01:03:47.451Z,71.01
2022-11-06T01:06:16.494Z,70.66
2022-11-06T01:08:43.689Z,70.35
2022-11-06T01:11:16.583Z,70.21
2022-11-06T01:13:44.442Z,70.20
2022-11-06T01:16:13.954Z,71.17
2022-11-06T01:18:42.321Z,71.10
2022-11-06T01:21:12.213Z,71.22
2022-11-06T01:23:38.978Z,71.13
2022-11-06T01:26:08.485Z,70.59
2022-11-06T01:28:35.338Z,70.18
2022-11-06T01:31:03.476Z,71.13
2022-11-06T01:33:29.829Z,70.15
2022-11-06T01:35:56.186Z,70.71
2022-11-06T01:38:22.712Z,70.70
2022-11-06T01:40:50.386Z,69.81
2022-11-06T01:43:39.670Z,70.48
2022-11-06T01:46:06.180Z,70.54
2022-11-06T01:48:33.196Z,70.40
2022-11-06T01:50:59.650Z,70.64
2022-11-06T01:53:27.043Z,70.34
2022-11-06T01:56:00.964Z,70.36
2022-11-06T01:58:31.511Z,69.51
2022-11-06T02:00:58.055Z,70.04
2022-11-06T02:03:24.732Z,69.62
2022-11-06T02:05:51.250Z,69.96
2022-11-06T02:08:19.837Z,69.65
2022-11-06T02:10:46.998Z,70.36
2022-11-06T02:13:39.979Z,70.55
2022-11-06T02:16:24.745Z,70.39
2022-11-06T02:18:57.953Z,70.19
2022-11-06T02:21:24.242Z,69.99
2022-11-06T02:23:53.428Z,70.99
2022-11-06T02:26:44.948Z,70.65
2022-11-06T02:29:19.165Z,70.40
2022-11-06T02:31:48.317Z,70.84
2022-11-06T02:34:18.730Z,70.55
2022-11-06T02:36:58.803Z,70.77
2022-11-06T02:39:28.666Z,69.83
2022-11-06T02:41:59.305Z,70.45
2022-11-06T02:44:29.029Z,70.48
2022-11-06T02:47:03.989Z,70.38
2022-11-06T02:49:37.643Z,70.24
2022-11-06T02:52:09.519Z,70.98
2022-11-06T02:54:41.054Z,70.67
2022-11-06T02:57:14.416Z,71.07
2022-11-06T02:59:47.541Z,71.57
2022-11-06T03:02:25.009Z,71.57
2022-11-06T03:04:59.150Z,72.01
2022-11-06T03:07:34.419Z,72.02
2022-11-06T03:10:02.187Z,72.10
2022-11-06T03:12:32.605Z,71.59
2022-11-06T03:15:06.425Z,72.97
2022-11-06T03:17:46.059Z,73.30
2022-11-06T03:20:35.975Z,72.96
2022-11-06T03:23:27.469Z,72.53
2022-11-06T03:26:12.536Z,73.19
2022-11-06T03:28:53.813Z,73.75
2022-11-06T03:31:29.963Z,72.27
2022-11-06T03:34:02.428Z,72.83
2022-11-06T03:36:41.870Z,73.03
2022-11-06T03:39:15.185Z,73.17
2022-11-06T03:41:48.192Z,72.84
2022-11-06T03:44:19.805Z,73.06
2022-11-06T03:47:01.794Z,72.93
2022-11-06T03:49:36.942Z,72.46
2022-11-06T03:52:10.704Z,72.44
2022-11-06T03:54:47.426Z,72.97
2022-11-06T03:57:23.753Z,73.35
2022-11-06T03:59:55.561Z,72.85
2022-11-06T04:02:25.987Z,72.33
2022-11-06T04:04:58.658Z,72.59
2022-11-06T04:07:34.957Z,72.83
2022-11-06T04:10:24.721Z,72.33
2022-11-06T04:13:13.337Z,71.75
2022-11-06T04:15:45.289Z,71.94
2022-11-06T04:18:14.293Z,72.21
2022-11-06T04:21:11.614Z,72.30
2022-11-06T04:24:10.794Z,73.28
2022-11-06T04:26:59.942Z,75.73
2022-11-06T04:29:44.718Z,76.53
2022-11-06T04:32:24.911Z,76.81
2022-11-06T04:35:05.226Z,76.31
2022-11-06T04:37:41.305Z,76.36
2022-11-06T04:40:15.915Z,75.67
2022-11-06T04:42:50.403Z,75.82
2022-11-06T04:45:25.360Z,76.20
2022-11-06T04:47:52.733Z,76.13
2022-11-06T04:50:22.331Z,76.29
2022-11-06T04:52:49.931Z,75.81
2022-11-06T04:55:16.615Z,75.76
2022-11-06T04:57:43.065Z,75.82
2022-11-06T05:00:13.909Z,75.04
2022-11-06T05:02:40.646Z,74.92
2022-11-06T05:05:07.827Z,74.91
2022-11-06T05:07:34.333Z,74.79
2022-11-06T05:10:00.780Z,74.05
2022-11-06T05:12:27.189Z,74.38
2022-11-06T05:14:53.649Z,74.47
2022-11-06T05:17:20.212Z,74.86
2022-11-06T05:19:46.597Z,74.15
2022-11-06T05:22:31.542Z,74.21
2022-11-06T05:24:57.878Z,74.07
2022-11-06T05:27:24.319Z,74.44
2022-11-06T05:29:50.774Z,74.81
2022-11-06T05:32:17.132Z,74.41
2022-11-06T05:34:44.084Z,74.37
2022-11-06T05:37:11.287Z,73.68
2022-11-06T05:39:41.608Z,74.00
2022-11-06T05:42:08.592Z,73.68
2022-11-06T05:44:34.945Z,72.85
2022-11-06T05:47:01.287Z,72.87
2022-11-06T05:49:27.666Z,73.95
2022-11-06T05:51:54.116Z,73.30
2022-11-06T05:54:20.480Z,72.42
2022-11-06T05:56:46.847Z,73.03
2022-11-06T05:59:13.220Z,72.45
2022-11-06T06:01:39.959Z,73.63
2022-11-06T06:04:06.397Z,72.30
2022-11-06T06:06:33.426Z,72.76
2022-11-06T06:08:59.764Z,72.20
2022-11-06T06:11:26.157Z,72.84
2022-11-06T06:13:52.507Z,72.67
2022-11-06T06:16:18.949Z,72.25
2022-11-06T06:18:45.309Z,72.43
2022-11-06T06:21:11.721Z,72.50
2022-11-06T06:23:38.058Z,73.63
2022-11-06T06:26:05.623Z,73.49
2022-11-06T06:28:32.464Z,73.54
2022-11-06T06:31:01.694Z,76.86
2022-11-06T06:33:28.398Z,77.76
2022-11-06T06:35:54.825Z,77.62
2022-11-06T06:38:21.201Z,77.25
2022-11-06T06:40:47.698Z,76.59
2022-11-06T06:43:14.140Z,75.75
2022-11-06T06:45:40.683Z,75.78
2022-11-06T06:48:07.484Z,75.21
2022-11-06T06:50:33.820Z,74.73
2022-11-06T06:53:00.706Z,74.79
2022-11-06T06:55:27.323Z,74.97
2022-11-06T06:58:00.786Z,74.92
2022-11-06T07:00:28.507Z,74.39
2022-11-06T07:02:54.906Z,74.12
2022-11-06T07:05:21.546Z,74.06
2022-11-06T07:07:47.992Z,73.03
2022-11-06T07:10:14.509Z,73.43
2022-11-06T07:12:40.974Z,73.29
2022-11-06T07:15:08.247Z,73.01
2022-11-06T07:17:34.653Z,72.47
2022-11-06T07:20:01.004Z,72.29
2022-11-06T07:22:35.469Z,72.28
2022-11-06T07:25:04.165Z,72.04
2022-11-06T07:27:30.732Z,71.16
2022-11-06T07:29:57.236Z,71.32
2022-11-06T07:32:23.707Z,71.33
2022-11-06T07:34:50.078Z,70.42
2022-11-06T07:37:16.681Z,70.86
2022-11-06T07:39:43.069Z,71.66
2022-11-06T07:42:09.581Z,70.82
2022-11-06T07:44:36.824Z,70.24
2022-11-06T07:47:03.330Z,69.92
2022-11-06T07:49:29.736Z,70.46
2022-11-06T07:51:56.302Z,70.78
2022-11-06T07:54:22.818Z,70.71
2022-11-06T07:56:49.263Z,69.78
2022-11-06T07:59:15.624Z,70.33
2022-11-06T08:01:42.101Z,70.43
2022-11-06T08:04:08.744Z,70.08
2022-11-06T08:06:36.377Z,70.25
2022-11-06T08:09:07.996Z,70.76
2022-11-06T08:11:34.812Z,72.38
2022-11-06T08:14:01.282Z,72.31
2022-11-06T08:16:27.820Z,71.50
2022-11-06T08:18:54.282Z,71.57
2022-11-06T08:21:20.629Z,71.28
2022-11-06T08:23:46.994Z,71.01
2022-11-06T08:26:13.333Z,69.82
2022-11-06T08:28:39.745Z,70.29
2022-11-06T08:31:07.596Z,69.70
2022-11-06T08:33:35.802Z,69.16
2022-11-06T08:36:03.864Z,69.51
2022-11-06T08:38:30.212Z,69.22
2022-11-06T08:40:56.551Z,68.62
2022-11-06T08:43:26.366Z,69.16
2022-11-06T08:45:53.219Z,68.72
2022-11-06T08:48:19.635Z,67.62
2022-11-06T08:50:46.081Z,67.97
2022-11-06T08:53:12.949Z,67.95
2022-11-06T08:55:39.756Z,67.52
2022-11-06T08:58:06.913Z,67.36
2022-11-06T09:00:33.311Z,66.06
2022-11-06T09:03:01.117Z,66.36
2022-11-06T09:05:28.223Z,66.14
2022-11-06T09:07:55.602Z,65.44
2022-11-06T09:10:22.153Z,65.18
2022-11-06T09:12:48.570Z,65.12
2022-11-06T09:15:16.242Z,65.24
2022-11-06T09:17:44.097Z,65.12
2022-11-06T09:20:11.775Z,65.37
2022-11-06T09:22:38.351Z,65.13
2022-11-06T09:25:05.565Z,65.31
2022-11-06T09:27:32.066Z,66.02
2022-11-06T09:29:58.529Z,65.77
2022-11-06T09:32:24.911Z,65.48
2022-11-06T09:34:51.691Z,65.79
2022-11-06T09:37:18.918Z,65.61
2022-11-06T09:39:45.545Z,66.04
2022-11-06T09:42:32.155Z,66.16
2022-11-06T09:45:11.108Z,66.10
2022-11-06T09:47:43.762Z,65.75
2022-11-06T09:50:23.333Z,65.64
2022-11-06T09:52:55.521Z,65.85
2022-11-06T09:55:26.457Z,65.48
2022-11-06T09:58:04.037Z,65.77
2022-11-06T10:00:31.249Z,65.52
2022-11-06T10:03:03.505Z,65.44
2022-11-06T10:05:33.360Z,64.72
2022-11-06T10:08:07.189Z,63.88
2022-11-06T10:10:43.781Z,63.80
2022-11-06T10:13:38.625Z,63.01
2022-11-06T10:16:30.589Z,59.63
2022-11-06T10:19:32.544Z,56.98
2022-11-06T10:22:22.731Z,57.36
2022-11-06T10:25:22.089Z,58.81
2022-11-06T10:28:18.459Z,58.12
2022-11-06T10:31:01.032Z,57.57
2022-11-06T10:33:37.768Z,56.97
2022-11-06T10:36:09.918Z,57.92
2022-11-06T10:38:40.770Z,59.70
2022-11-06T10:41:29.352Z,60.52
2022-11-06T10:44:19.649Z,61.19
2022-11-06T10:47:09.845Z,61.45
2022-11-06T10:49:58.783Z,60.79
2022-11-06T10:52:28.225Z,60.58
2022-11-06T10:55:32.226Z,60.92
2022-11-06T10:58:08.404Z,61.18
2022-11-06T11:00:35.684Z,61.75
2022-11-06T11:03:06.435Z,62.00
2022-11-06T11:05:41.304Z,62.35
2022-11-06T11:08:30.395Z,61.58
2022-11-06T11:11:16.889Z,61.08
2022-11-06T11:14:03.455Z,59.92
2022-11-06T11:16:35.167Z,57.61
2022-11-06T11:19:24.925Z,53.09
2022-11-06T11:21:57.178Z,49.80
2022-11-06T11:24:24.246Z,45.29
2022-11-06T11:27:01.111Z,44.58
2022-11-06T11:29:50.473Z,46.90
2022-11-06T11:32:20.606Z,49.29
2022-11-06T11:34:56.893Z,49.51
2022-11-06T11:37:35.995Z,50.45
2022-11-06T11:40:36.026Z,49.50
2022-11-06T11:43:28.268Z,47.10
2022-11-06T11:46:03.286Z,46.10
2022-11-06T11:48:51.193Z,44.41
2022-11-06T11:51:34.883Z,42.99
2022-11-06T11:54:06.348Z,40.37
2022-11-06T11:57:03.089Z,39.12
2022-11-06T11:59:25.514Z,37.04
2022-11-06T12:01:53.609Z,36.76
2022-11-06T12:04:22.466Z,39.33
2022-11-06T12:06:51.557Z,41.00
2022-11-06T12:09:18.489Z,40.57
2022-11-06T12:11:46.270Z,39.24
2022-11-06T12:14:26.435Z,38.43
2022-11-06T12:17:07.915Z,37.63
2022-11-06T12:19:37.765Z,38.02
2022-11-06T12:22:12.575Z,40.27
2022-11-06T12:24:49.896Z,43.65
2022-11-06T12:27:23.266Z,43.70
2022-11-06T12:30:05.053Z,44.91
2022-11-06T12:32:41.570Z,45.92
2022-11-06T12:35:28.455Z,47.16
2022-11-06T12:38:06.424Z,48.14
2022-11-06T12:40:40.099Z,49.62
2022-11-06T12:43:22.235Z,49.56
2022-11-06T12:45:48.521Z,50.40
2022-11-06T12:48:42.546Z,51.65
2022-11-06T12:51:31.198Z,51.53
2022-11-06T12:54:16.518Z,51.61
2022-11-06T12:56:55.136Z,51.76
2022-11-06T12:59:41.195Z,52.42
2022-11-06T13:02:42.117Z,52.45
2022-11-06T13:05:20.436Z,52.71
2022-11-06T13:08:18.639Z,52.70
2022-11-06T13:11:00.520Z,52.88
2022-11-06T13:13:41.220Z,53.90
2022-11-06T13:16:13.369Z,53.89
2022-11-06T13:18:53.074Z,54.16
2022-11-06T13:21:36.242Z,54.60
2022-11-06T13:24:18.268Z,55.45
2022-11-06T13:26:49.468Z,55.26
2022-11-06T13:29:19.515Z,55.78
2022-11-06T13:31:57.549Z,55.84
2022-11-06T13:34:43.538Z,56.55
2022-11-06T13:37:17.453Z,55.50
2022-11-06T13:39:55.497Z,55.51
2022-11-06T13:42:26.742Z,54.83
2022-11-06T13:44:54.165Z,54.44
2022-11-06T13:47:29.202Z,54.32
2022-11-06T13:50:16.680Z,55.07
2022-11-06T13:52:51.796Z,54.56
2022-11-06T13:55:24.135Z,54.81
2022-11-06T13:58:08.027Z,55.03
2022-11-06T14:00:56.021Z,54.99
2022-11-06T14:03:33.044Z,55.63
2022-11-06T14:06:17.741Z,56.33
2022-11-06T14:08:48.030Z,56.87
2022-11-06T14:11:17.740Z,57.12
2022-11-06T14:14:02.830Z,57.39
2022-11-06T14:16:38.418Z,57.92
2022-11-06T14:19:37.978Z,57.78
2022-11-06T14:22:17.444Z,58.24
2022-11-06T14:24:44.462Z,58.62
2022-11-06T14:27:36.163Z,59.26
2022-11-06T14:30:03.149Z,59.22
2022-11-06T14:32:40.845Z,59.13
2022-11-06T14:35:28.843Z,59.34
2022-11-06T14:38:18.850Z,59.88
2022-11-06T14:40:45.579Z,59.54
2022-11-06T14:43:28.530Z,59.51
2022-11-06T14:46:22.330Z,59.88
2022-11-06T14:48:52.025Z,60.23
2022-11-06T14:51:26.638Z,59.99
2022-11-06T14:53:57.513Z,60.31
2022-11-06T14:56:30.570Z,60.63
2022-11-06T14:59:01.410Z,60.78
2022-11-06T15:01:37.013Z,61.15
2022-11-06T15:04:18.006Z,61.04
2022-11-06T15:06:48.146Z,61.25
2022-11-06T15:09:15.871Z,61.52
2022-11-06T15:11:47.667Z,61.82
2022-11-06T15:14:14.521Z,62.09
2022-11-06T15:16:43.925Z,61.81
2022-11-06T15:19:15.178Z,61.81
2022-11-06T15:22:14.072Z,61.92
2022-11-06T15:24:51.789Z,62.08
2022-11-06T15:27:21.562Z,62.35
2022-11-06T15:29:52.346Z,62.18
2022-11-06T15:32:22.832Z,62.41
2022-11-06T15:35:01.029Z,62.24
2022-11-06T15:37:32.329Z,62.54
2022-11-06T15:40:01.286Z,62.54
2022-11-06T15:42:33.879Z,63.05
2022-11-06T15:45:19.442Z,62.82
2022-11-06T15:47:59.468Z,63.11
2022-11-06T15:50:34.421Z,63.02
2022-11-06T15:53:13.275Z,63.09
2022-11-06T15:55:48.808Z,63.31
2022-11-06T15:58:31.171Z,63.44
2022-11-06T16:00:59.406Z,63.50
2022-11-06T16:03:28.204Z,63.54
2022-11-06T16:05:55.896Z,63.60
2022-11-06T16:08:24.215Z,63.68
2022-11-06T16:10:52.137Z,64.11
2022-11-06T16:13:20.887Z,63.62
2022-11-06T16:15:48.221Z,63.52
2022-11-06T16:18:20.320Z,63.63
2022-11-06T16:21:18.176Z,63.69
2022-11-06T16:23:51.835Z,63.17
2022-11-06T16:26:23.310Z,63.16
2022-11-06T16:28:51.926Z,62.98
2022-11-06T16:31:22.519Z,63.15
2022-11-06T16:33:59.207Z,63.34
2022-11-06T16:36:28.266Z,63.30
2022-11-06T16:39:47.641Z,62.80
2022-11-06T16:42:35.971Z,63.07
2022-11-06T16:45:08.053Z,62.51
2022-11-06T16:47:34.832Z,62.89
2022-11-06T16:50:06.880Z,63.14
2022-11-06T16:52:38.969Z,62.74
2022-11-06T16:55:17.049Z,62.67
2022-11-06T16:57:56.853Z,62.60
2022-11-06T17:00:27.252Z,62.33
2022-11-06T17:02:57.289Z,62.60
2022-11-06T17:05:29.322Z,62.45
2022-11-06T17:08:04.785Z,62.33
2022-11-06T17:10:34.322Z,62.53
2022-11-06T17:13:12.258Z,62.21
2022-11-06T17:15:39.649Z,62.25
2022-11-06T17:18:06.052Z,62.26
2022-11-06T17:20:34.645Z,62.19
2022-11-06T17:23:01.110Z,62.11
2022-11-06T17:25:28.052Z,62.02
2022-11-06T17:27:54.410Z,62.37
2022-11-06T17:30:22.971Z,62.05
2022-11-06T17:32:49.346Z,61.79
2022-11-06T17:35:16.012Z,61.93
2022-11-06T17:37:42.389Z,61.70
2022-11-06T17:40:09.525Z,61.89
2022-11-06T17:42:35.955Z,62.15
2022-11-06T17:45:02.298Z,62.12
2022-11-06T17:47:28.678Z,61.41
2022-11-06T17:49:55.144Z,61.06
2022-11-06T17:52:21.532Z,61.58
2022-11-06T17:54:47.893Z,61.93
2022-11-06T17:57:17.467Z,62.02
2022-11-06T17:59:47.746Z,61.58
2022-11-06T18:02:25.460Z,61.54
2022-11-06T18:05:03.131Z,61.52
2022-11-06T18:07:29.689Z,61.68
2022-11-06T18:09:56.098Z,61.74
2022-11-06T18:12:25.285Z,61.28
2022-11-06T18:14:51.726Z,61.26
2022-11-06T18:17:18.263Z,61.25
2022-11-06T18:19:44.671Z,61.39
2022-11-06T18:22:11.260Z,60.96
2022-11-06T18:24:37.990Z,61.24
2022-11-06T18:27:04.460Z,60.45
2022-11-06T18:29:30.826Z,61.07
2022-11-06T18:31:57.248Z,61.11
2022-11-06T18:34:23.666Z,60.50
2022-11-06T18:36:50.847Z,60.37
2022-11-06T18:39:18.148Z,60.78
2022-11-06T18:41:44.600Z,60.69
2022-11-06T18:44:11.252Z,60.22
2022-11-06T18:46:37.748Z,61.65
2022-11-06T18:49:04.189Z,60.71
2022-11-06T18:51:35.457Z,60.73
2022-11-06T18:54:05.554Z,60.33
2022-11-06T18:56:32.938Z,59.84
2022-11-06T18:58:59.733Z,59.81
2022-11-06T19:01:26.392Z,59.67
2022-11-06T19:03:52.958Z,59.30
2022-11-06T19:06:20.695Z,59.28
2022-11-06T19:08:48.767Z,59.77
2022-11-06T19:11:16.847Z,59.36
2022-11-06T19:13:47.586Z,59.35
2022-11-06T19:16:15.958Z,58.99
2022-11-06T19:18:42.471Z,58.92
2022-11-06T19:21:10.932Z,59.33
2022-11-06T19:23:42.327Z,58.40
2022-11-06T19:26:30.040Z,58.98
2022-11-06T19:28:58.280Z,58.82
2022-11-06T19:31:28.804Z,58.28
2022-11-06T19:33:56.689Z,58.19
2022-11-06T19:36:25.039Z,58.86
2022-11-06T19:38:51.599Z,58.26
2022-11-06T19:41:18.162Z,58.42
2022-11-06T19:43:44.597Z,59.03
2022-11-06T19:46:11.212Z,58.65
2022-11-06T19:48:37.613Z,58.38
2022-11-06T19:51:10.157Z,57.99
2022-11-06T19:53:36.786Z,57.69
2022-11-06T19:56:04.744Z,57.93
2022-11-06T19:58:31.372Z,57.69
2022-11-06T20:00:58.085Z,57.55
2022-11-06T20:03:24.532Z,58.00
2022-11-06T20:05:53.057Z,57.80
2022-11-06T20:08:19.403Z,58.10
2022-11-06T20:10:45.808Z,58.19
2022-11-06T20:13:12.398Z,57.72
2022-11-06T20:15:39.056Z,57.19
2022-11-06T20:18:05.485Z,57.78
2022-11-06T20:20:36.291Z,57.49
2022-11-06T20:23:03.454Z,57.10
2022-11-06T20:25:30.164Z,57.51
2022-11-06T20:27:56.590Z,57.48
2022-11-06T20:30:23.026Z,57.00
2022-11-06T20:32:49.415Z,57.61
2022-11-06T20:35:16.901Z,57.67
2022-11-06T20:37:44.316Z,57.36
2022-11-06T20:40:11.099Z,57.04
2022-11-06T20:42:37.618Z,57.59
2022-11-06T20:45:04.748Z,56.36
2022-11-06T20:47:31.695Z,56.86
2022-11-06T20:49:58.261Z,56.80
2022-11-06T20:52:24.721Z,57.77
2022-11-06T20:54:51.138Z,58.07
2022-11-06T20:57:17.700Z,58.73
2022-11-06T20:59:46.045Z,59.62
2022-11-06T21:02:12.608Z,60.16
2022-11-06T21:04:39.267Z,61.26
2022-11-06T21:07:05.664Z,63.55
2022-11-06T21:09:32.419Z,64.37
2022-11-06T21:11:58.856Z,65.40
2022-11-06T21:14:25.569Z,66.73
2022-11-06T21:16:53.104Z,72.08
2022-11-06T21:19:19.466Z,74.97
2022-11-06T21:21:45.889Z,76.26
2022-11-06T21:24:12.256Z,79.30
2022-11-06T21:26:38.736Z,80.26
2022-11-06T21:29:07.873Z,80.63
2022-11-06T21:31:34.753Z,81.16
2022-11-06T21:34:03.515Z,82.00
2022-11-06T21:36:33.148Z,81.24
2022-11-06T21:39:02.567Z,80.61
2022-11-06T21:41:30.952Z,80.18
2022-11-06T21:43:57.719Z,80.25
2022-11-06T21:46:24.448Z,80.96
2022-11-06T21:48:51.433Z,80.88
2022-11-06T21:51:22.939Z,80.00
2022-11-06T21:54:08.723Z,79.06
2022-11-06T21:56:35.835Z,78.45
2022-11-06T21:59:05.167Z,77.96
2022-11-06T22:01:32.054Z,78.70
2022-11-06T22:03:59.410Z,77.85
2022-11-06T22:06:27.551Z,77.21
2022-11-06T22:09:01.004Z,76.81
2022-11-06T22:11:32.666Z,77.39
2022-11-06T22:14:02.393Z,77.27
2022-11-06T22:16:35.858Z,76.81
2022-11-06T22:19:03.037Z,76.38
2022-11-06T22:21:30.644Z,76.13
2022-11-06T22:23:57.105Z,75.59
2022-11-06T22:26:26.216Z,75.86
2022-11-06T22:28:55.938Z,75.56
2022-11-06T22:31:23.557Z,75.23
2022-11-06T22:33:53.631Z,75.05
2022-11-06T22:36:22.188Z,74.15
2022-11-06T22:38:49.403Z,73.49
2022-11-06T22:41:22.708Z,73.82
2022-11-06T22:43:49.955Z,73.29
2022-11-06T22:46:19.734Z,72.69
2022-11-06T22:48:46.455Z,72.56
2022-11-06T22:51:15.699Z,72.02
2022-11-06T22:53:42.084Z,72.22
2022-11-06T22:56:09.286Z,72.09
2022-11-06T22:58:35.661Z,72.31
2022-11-06T23:01:02.729Z,71.38
2022-11-06T23:03:31.859Z,71.51
2022-11-06T23:06:03.052Z,71.76
2022-11-06T23:08:29.461Z,71.44
2022-11-06T23:10:56.637Z,71.41
2022-11-06T23:13:23.703Z,70.84
2022-11-06T23:15:51.395Z,70.63
2022-11-06T23:18:18.038Z,71.29
2022-11-06T23:20:44.502Z,71.02
2022-11-06T23:23:11.074Z,70.97
2022-11-06T23:25:37.892Z,71.08
2022-11-06T23:28:05.146Z,71.93
2022-11-06T23:30:31.781Z,71.03
2022-11-06T23:33:00.722Z,71.83
2022-11-06T23:35:32.714Z,71.59
2022-11-06T23:37:59.949Z,71.11
2022-11-06T23:40:26.907Z,72.49
2022-11-06T23:42:56.038Z,71.77
2022-11-06T23:45:41.103Z,71.81
2022-11-06T23:48:18.350Z,71.73
2022-11-06T23:50:46.824Z,72.81
2022-11-06T23:53:15.222Z,71.82
2022-11-06T23:55:42.003Z,72.22
2022-11-06T23:58:08.500Z,72.28
